createdAt,value
2019-03-15T00:01:44.085Z,25.10
2019-03-15T00:04:12.644Z,25.30
2019-03-15T00:06:41.067Z,25.30
2019-03-15T00:09:09.605Z,24.90
2019-03-15T00:11:38.099Z,25.20
2019-03-15T00:14:06.661Z,24.90
2019-03-15T00:16:35.253Z,25.10
2019-03-15T00:19:03.737Z,25.10
2019-03-15T00:21:32.161Z,25.40
2019-03-15T00:24:00.613Z,25.70
2019-03-15T00:26:29.170Z,25.90
2019-03-15T00:28:57.598Z,26.00
2019-03-15T00:31:26.125Z,26.00
2019-03-15T00:33:54.606Z,26.20
2019-03-15T00:36:23.107Z,26.20
2019-03-15T00:38:51.553Z,26.40
2019-03-15T00:41:20.049Z,26.10
2019-03-15T00:43:50.169Z,25.70
2019-03-15T00:46:18.760Z,25.60
2019-03-15T00:48:47.246Z,25.70
2019-03-15T00:51:15.769Z,25.00
2019-03-15T00:53:44.281Z,25.00
2019-03-15T00:56:12.776Z,24.20
2019-03-15T00:58:41.266Z,23.80
2019-03-15T01:01:10.201Z,23.20
2019-03-15T01:03:38.771Z,23.10
2019-03-15T01:06:07.179Z,23.10
2019-03-15T01:08:35.702Z,22.70
2019-03-15T01:11:04.208Z,23.00
2019-03-15T01:13:32.682Z,23.70
2019-03-15T01:16:01.271Z,23.30
2019-03-15T01:18:29.819Z,22.60
2019-03-15T01:20:58.443Z,21.90
2019-03-15T01:23:27.044Z,21.90
2019-03-15T01:25:55.531Z,23.20
2019-03-15T01:28:24.088Z,22.90
2019-03-15T01:30:52.607Z,22.80
2019-03-15T01:33:21.096Z,22.50
2019-03-15T01:35:49.506Z,22.50
2019-03-15T01:38:17.974Z,23.40
2019-03-15T01:40:48.785Z,24.40
2019-03-15T01:43:16.696Z,24.40
2019-03-15T01:45:45.280Z,24.10
2019-03-15T01:48:13.695Z,23.90
2019-03-15T01:50:42.182Z,24.60
2019-03-15T01:53:10.708Z,24.90
2019-03-15T01:55:39.196Z,24.90
2019-03-15T01:58:07.598Z,25.50
2019-03-15T02:00:36.117Z,25.00
2019-03-15T02:03:04.622Z,25.30
2019-03-15T02:05:33.182Z,25.50
2019-03-15T02:08:01.728Z,25.50
2019-03-15T02:10:30.148Z,25.10
2019-03-15T02:12:58.630Z,24.50
2019-03-15T02:15:27.165Z,24.60
2019-03-15T02:17:55.652Z,25.10
2019-03-15T02:20:24.134Z,24.60
2019-03-15T02:22:52.660Z,24.80
2019-03-15T02:25:21.068Z,24.30
2019-03-15T02:27:49.562Z,24.50
2019-03-15T02:30:18.087Z,24.40
2019-03-15T02:32:46.574Z,24.30
2019-03-15T02:35:15.315Z,23.70
2019-03-15T02:37:44.016Z,23.40
2019-03-15T02:40:12.962Z,22.60
2019-03-15T02:42:41.753Z,22.80
2019-03-15T02:45:10.303Z,22.70
2019-03-15T02:47:39.045Z,22.80
2019-03-15T02:50:08.199Z,22.70
2019-03-15T02:52:36.712Z,22.40
2019-03-15T02:55:06.276Z,22.20
2019-03-15T02:57:35.524Z,21.90
2019-03-15T03:00:06.157Z,22.00
2019-03-15T03:02:34.656Z,21.10
2019-03-15T03:05:04.147Z,21.80
2019-03-15T03:07:32.672Z,21.70
2019-03-15T03:10:02.130Z,22.40
2019-03-15T03:12:31.039Z,22.90
2019-03-15T03:14:59.643Z,23.40
2019-03-15T03:17:28.055Z,23.60
2019-03-15T03:19:56.472Z,23.70
2019-03-15T03:22:24.944Z,23.20
2019-03-15T03:24:53.406Z,22.30
2019-03-15T03:27:21.892Z,21.90
2019-03-15T03:29:50.354Z,21.90
2019-03-15T03:32:18.920Z,21.80
2019-03-15T03:34:47.409Z,21.10
2019-03-15T03:37:16.007Z,21.20
2019-03-15T03:39:44.505Z,21.60
2019-03-15T03:42:13.184Z,22.10
2019-03-15T03:44:41.671Z,22.40
2019-03-15T03:47:10.163Z,22.30
2019-03-15T03:49:38.839Z,22.40
2019-03-15T03:52:07.441Z,22.40
2019-03-15T03:54:35.939Z,22.50
2019-03-15T03:57:04.827Z,22.40
2019-03-15T03:59:33.415Z,22.10
2019-03-15T04:02:01.774Z,22.40
2019-03-15T04:04:30.186Z,22.30
2019-03-15T04:06:58.713Z,22.80
2019-03-15T04:09:27.151Z,23.10
2019-03-15T04:11:56.230Z,23.60
2019-03-15T04:14:25.022Z,23.60
2019-03-15T04:16:53.491Z,23.50
2019-03-15T04:19:21.979Z,23.10
2019-03-15T04:21:50.502Z,23.70
2019-03-15T04:24:18.919Z,24.10
2019-03-15T04:26:47.341Z,24.00
2019-03-15T04:29:15.861Z,24.10
2019-03-15T04:31:44.377Z,24.20
2019-03-15T04:34:15.849Z,23.80
2019-03-15T04:36:44.378Z,23.70
2019-03-15T04:39:14.157Z,24.00
2019-03-15T04:41:42.754Z,23.40
2019-03-15T04:44:11.203Z,23.50
2019-03-15T04:46:39.697Z,23.30
2019-03-15T04:49:08.185Z,23.20
2019-03-15T04:51:36.732Z,23.40
2019-03-15T04:54:05.872Z,23.80
2019-03-15T04:56:34.599Z,23.80
2019-03-15T04:59:03.189Z,23.90
2019-03-15T05:01:31.605Z,23.40
2019-03-15T05:04:00.093Z,23.60
2019-03-15T05:06:28.583Z,23.30
2019-03-15T05:08:57.147Z,23.30
2019-03-15T05:11:25.709Z,23.20
2019-03-15T05:13:54.230Z,23.80
2019-03-15T05:16:22.664Z,23.80
2019-03-15T05:18:51.079Z,23.60
2019-03-15T05:21:19.680Z,23.60
2019-03-15T05:23:48.312Z,23.40
2019-03-15T05:26:16.857Z,23.80
2019-03-15T05:28:45.301Z,23.70
2019-03-15T05:31:13.731Z,23.10
2019-03-15T05:33:42.283Z,23.30
2019-03-15T05:36:10.934Z,23.00
2019-03-15T05:38:39.345Z,22.30
2019-03-15T05:41:07.907Z,21.90
2019-03-15T05:43:36.470Z,22.40
2019-03-15T05:46:04.954Z,22.20
2019-03-15T05:48:33.442Z,22.00
2019-03-15T05:51:01.963Z,20.80
2019-03-15T05:53:30.477Z,20.40
2019-03-15T05:55:58.955Z,20.30
2019-03-15T05:58:27.501Z,20.40
2019-03-15T06:00:55.908Z,20.20
2019-03-15T06:03:24.391Z,20.20
2019-03-15T06:05:52.980Z,20.70
2019-03-15T06:08:21.481Z,20.10
2019-03-15T06:10:50.327Z,19.60
2019-03-15T06:13:19.025Z,19.20
2019-03-15T06:15:47.510Z,19.00
2019-03-15T06:18:16.007Z,18.40
2019-03-15T06:20:44.550Z,18.90
2019-03-15T06:23:13.025Z,19.20
2019-03-15T06:25:41.546Z,18.70
2019-03-15T06:28:10.149Z,18.40
2019-03-15T06:30:38.720Z,18.00
2019-03-15T06:33:07.284Z,18.30
2019-03-15T06:35:35.886Z,17.80
2019-03-15T06:38:04.289Z,18.30
2019-03-15T06:40:32.783Z,18.30
2019-03-15T06:43:01.247Z,18.10
2019-03-15T06:45:31.800Z,19.00
2019-03-15T06:48:00.877Z,19.60
2019-03-15T06:50:29.550Z,20.30
2019-03-15T06:52:58.023Z,19.80
2019-03-15T06:55:26.583Z,19.80
2019-03-15T06:57:55.104Z,19.60
2019-03-15T07:00:23.589Z,18.50
2019-03-15T07:02:52.212Z,19.10
2019-03-15T07:05:20.987Z,19.80
2019-03-15T07:07:50.421Z,20.40
2019-03-15T07:10:18.851Z,20.90
2019-03-15T07:12:47.341Z,20.80
2019-03-15T07:15:15.902Z,20.50
2019-03-15T07:17:44.344Z,21.10
2019-03-15T07:20:16.891Z,22.90
2019-03-15T07:22:45.366Z,22.60
2019-03-15T07:25:13.990Z,23.10
2019-03-15T07:27:43.165Z,23.50
2019-03-15T07:30:15.672Z,23.40
2019-03-15T07:32:44.118Z,23.30
2019-03-15T07:35:12.604Z,23.20
2019-03-15T07:37:41.016Z,23.30
2019-03-15T07:40:11.862Z,22.20
2019-03-15T07:42:40.356Z,21.60
2019-03-15T07:45:10.486Z,21.70
2019-03-15T07:47:39.053Z,20.70
2019-03-15T07:50:14.268Z,21.50
2019-03-15T07:52:41.943Z,21.60
2019-03-15T07:55:10.957Z,21.60
2019-03-15T07:57:39.414Z,21.40
2019-03-15T08:00:10.809Z,22.60
2019-03-15T08:02:39.399Z,22.40
2019-03-15T08:05:08.858Z,22.90
2019-03-15T08:07:44.310Z,23.10
2019-03-15T08:10:13.667Z,22.90
2019-03-15T08:12:42.154Z,23.50
2019-03-15T08:15:12.189Z,23.50
2019-03-15T08:17:40.746Z,22.90
2019-03-15T08:20:13.691Z,23.20
2019-03-15T08:22:42.262Z,23.60
2019-03-15T08:25:11.725Z,22.80
2019-03-15T08:27:40.217Z,22.80
2019-03-15T08:30:13.547Z,22.50
2019-03-15T08:32:43.865Z,23.00
2019-03-15T08:35:12.654Z,23.00
2019-03-15T08:37:41.067Z,23.10
2019-03-15T08:40:12.855Z,22.90
2019-03-15T08:42:41.348Z,21.50
2019-03-15T08:45:14.811Z,22.40
2019-03-15T08:47:43.270Z,22.20
2019-03-15T08:50:16.145Z,22.40
2019-03-15T08:52:44.644Z,21.80
2019-03-15T08:55:13.856Z,22.30
2019-03-15T08:57:42.351Z,22.60
2019-03-15T09:00:17.897Z,23.00
2019-03-15T09:02:46.448Z,22.80
2019-03-15T09:05:15.869Z,23.20
2019-03-15T09:07:44.534Z,23.00
2019-03-15T09:10:24.005Z,22.90
2019-03-15T09:12:50.492Z,22.90
2019-03-15T09:15:19.482Z,23.00
2019-03-15T09:17:48.827Z,22.90
2019-03-15T09:20:17.503Z,23.40
2019-03-15T09:22:46.097Z,22.80
2019-03-15T09:25:19.879Z,21.70
2019-03-15T09:27:46.131Z,21.60
2019-03-15T09:30:23.695Z,22.00
2019-03-15T09:32:47.819Z,21.30
2019-03-15T09:35:16.354Z,21.70
2019-03-15T09:37:47.234Z,22.50
2019-03-15T09:40:15.887Z,22.80
2019-03-15T09:42:44.387Z,22.90
2019-03-15T09:45:14.210Z,23.10
2019-03-15T09:47:42.710Z,23.20
2019-03-15T09:50:24.096Z,23.00
2019-03-15T09:52:47.564Z,22.70
2019-03-15T09:55:16.157Z,22.70
2019-03-15T09:57:44.694Z,22.00
2019-03-15T10:00:17.786Z,22.30
2019-03-15T10:02:46.789Z,21.90
2019-03-15T10:05:15.374Z,22.10
2019-03-15T10:07:44.209Z,21.40
2019-03-15T10:10:18.258Z,21.40
2019-03-15T10:12:46.216Z,21.30
2019-03-15T10:15:15.667Z,21.90
2019-03-15T10:17:44.170Z,22.20
2019-03-15T10:20:13.391Z,22.60
2019-03-15T10:22:42.277Z,22.70
2019-03-15T10:25:15.006Z,22.80
2019-03-15T10:27:43.553Z,23.00
2019-03-15T10:30:17.013Z,22.90
2019-03-15T10:32:45.578Z,22.90
2019-03-15T10:35:14.030Z,23.10
2019-03-15T10:37:42.461Z,22.60
2019-03-15T10:40:22.920Z,22.80
2019-03-15T10:42:51.410Z,23.60
2019-03-15T10:45:19.987Z,24.30
2019-03-15T10:47:48.562Z,24.50
2019-03-15T10:50:18.219Z,25.80
2019-03-15T10:52:46.636Z,24.20
2019-03-15T10:55:15.347Z,23.60
2019-03-15T10:57:43.821Z,23.00
2019-03-15T11:00:22.208Z,22.80
2019-03-15T11:02:50.780Z,21.90
2019-03-15T11:05:19.269Z,21.60
2019-03-15T11:07:47.911Z,22.10
2019-03-15T11:10:16.398Z,22.30
2019-03-15T11:12:44.892Z,22.00
2019-03-15T11:15:16.679Z,21.90
2019-03-15T11:17:45.209Z,21.50
2019-03-15T11:20:14.622Z,21.60
2019-03-15T11:22:43.230Z,21.50
2019-03-15T11:25:12.170Z,21.20
2019-03-15T11:27:40.616Z,21.30
2019-03-15T11:30:14.904Z,21.60
2019-03-15T11:32:43.390Z,20.90
2019-03-15T11:35:12.521Z,21.50
2019-03-15T11:37:41.080Z,21.50
2019-03-15T11:40:14.778Z,20.60
2019-03-15T11:42:43.363Z,20.70
2019-03-15T11:45:12.777Z,21.70
2019-03-15T11:48:01.138Z,22.50
2019-03-15T11:50:16.741Z,23.00
2019-03-15T11:52:45.237Z,23.10
2019-03-15T11:55:13.865Z,23.40
2019-03-15T11:57:42.484Z,23.60
2019-03-15T12:00:18.161Z,24.50
2019-03-15T12:02:46.694Z,25.10
2019-03-15T12:05:15.560Z,24.50
2019-03-15T12:07:44.451Z,24.00
2019-03-15T12:10:14.066Z,23.70
2019-03-15T12:12:42.628Z,22.90
2019-03-15T12:15:20.747Z,22.80
2019-03-15T12:17:49.228Z,22.80
2019-03-15T12:20:17.714Z,23.20
2019-03-15T12:22:46.224Z,23.50
2019-03-15T12:25:14.649Z,23.40
2019-03-15T12:27:43.137Z,23.70
2019-03-15T12:30:15.972Z,23.90
2019-03-15T12:32:44.469Z,22.70
2019-03-15T12:35:16.463Z,21.90
2019-03-15T12:37:44.968Z,20.30
2019-03-15T12:40:14.732Z,20.90
2019-03-15T12:42:43.227Z,22.60
2019-03-15T12:45:12.430Z,23.40
2019-03-15T12:47:40.858Z,22.80
2019-03-15T12:50:11.672Z,21.60
2019-03-15T12:52:47.048Z,21.30
2019-03-15T12:55:12.629Z,21.40
2019-03-15T12:57:41.043Z,21.70
2019-03-15T13:00:12.838Z,23.30
2019-03-15T13:02:41.316Z,23.70
2019-03-15T13:05:09.882Z,24.30
2019-03-15T13:07:38.522Z,24.90
2019-03-15T13:10:10.521Z,24.30
2019-03-15T13:12:39.116Z,24.10
2019-03-15T13:15:10.379Z,24.80
2019-03-15T13:17:38.872Z,25.20
2019-03-15T13:20:10.017Z,25.30
2019-03-15T13:22:38.689Z,24.30
2019-03-15T13:25:09.413Z,24.30
2019-03-15T13:27:37.922Z,24.40
2019-03-15T13:30:09.450Z,25.20
2019-03-15T13:32:37.997Z,25.30
2019-03-15T13:35:07.460Z,24.10
2019-03-15T13:37:36.066Z,23.40
2019-03-15T13:40:10.858Z,22.40
2019-03-15T13:42:39.386Z,22.10
2019-03-15T13:45:10.350Z,22.70
2019-03-15T13:47:38.904Z,22.70
2019-03-15T13:50:16.382Z,22.10
2019-03-15T13:52:44.998Z,21.70
2019-03-15T13:55:13.608Z,21.50
2019-03-15T13:57:42.154Z,22.10
2019-03-15T14:00:13.220Z,21.80
2019-03-15T14:02:41.710Z,21.90
2019-03-15T14:05:10.360Z,22.10
2019-03-15T14:07:38.782Z,22.20
2019-03-15T14:10:15.478Z,22.80
2019-03-15T14:12:43.975Z,23.40
2019-03-15T14:15:13.524Z,22.30
2019-03-15T14:17:42.112Z,22.00
2019-03-15T14:20:11.730Z,22.60
2019-03-15T14:22:40.282Z,22.80
2019-03-15T14:25:18.985Z,23.10
2019-03-15T14:27:47.599Z,22.80
2019-03-15T14:30:16.051Z,22.30
2019-03-15T14:32:44.634Z,22.00
2019-03-15T14:35:13.200Z,22.00
2019-03-15T14:37:41.998Z,22.60
2019-03-15T14:40:11.776Z,22.60
2019-03-15T14:42:40.363Z,22.90
2019-03-15T14:45:11.529Z,23.20
2019-03-15T14:47:40.031Z,23.00
2019-03-15T14:50:10.854Z,23.00
2019-03-15T14:52:39.684Z,22.70
2019-03-15T14:55:09.939Z,22.40
2019-03-15T14:57:51.332Z,22.20
2019-03-15T15:00:14.409Z,21.90
2019-03-15T15:02:43.351Z,21.70
2019-03-15T15:05:12.363Z,21.70
2019-03-15T15:07:41.024Z,21.70
2019-03-15T15:10:13.610Z,21.60
2019-03-15T15:12:42.244Z,21.70
2019-03-15T15:15:12.523Z,22.00
2019-03-15T15:17:41.093Z,22.50
2019-03-15T15:20:10.713Z,23.70
2019-03-15T15:22:39.307Z,22.90
2019-03-15T15:25:12.209Z,22.50
2019-03-15T15:27:40.763Z,22.60
2019-03-15T15:30:14.091Z,24.00
2019-03-15T15:32:42.555Z,24.90
2019-03-15T15:35:11.819Z,25.90
2019-03-15T15:37:40.579Z,25.20
2019-03-15T15:40:19.926Z,25.90
2019-03-15T15:42:48.439Z,25.90
2019-03-15T15:45:17.062Z,25.90
2019-03-15T15:47:45.571Z,25.90
2019-03-15T15:50:14.850Z,26.80
2019-03-15T15:52:46.177Z,27.80
2019-03-15T15:55:15.435Z,28.30
2019-03-15T15:57:43.981Z,28.30
2019-03-15T16:00:14.681Z,28.30
2019-03-15T16:02:44.822Z,28.20
2019-03-15T16:05:13.423Z,28.80
2019-03-15T16:07:41.995Z,28.80
2019-03-15T16:10:17.970Z,28.60
2019-03-15T16:12:45.666Z,28.70
2019-03-15T16:15:17.404Z,28.40
2019-03-15T16:17:46.132Z,28.30
2019-03-15T16:20:14.782Z,28.10
2019-03-15T16:22:43.263Z,27.80
2019-03-15T16:25:12.524Z,28.70
2019-03-15T16:27:41.949Z,28.00
2019-03-15T16:30:15.628Z,28.20
2019-03-15T16:32:44.164Z,27.40
2019-03-15T16:35:13.704Z,28.00
2019-03-15T16:37:42.286Z,27.60
2019-03-15T16:40:14.436Z,26.90
2019-03-15T16:42:43.094Z,26.50
2019-03-15T16:45:29.343Z,27.20
2019-03-15T16:47:57.856Z,26.20
2019-03-15T16:50:27.558Z,26.10
2019-03-15T16:52:56.150Z,27.00
2019-03-15T16:55:24.861Z,27.20
2019-03-15T16:57:53.417Z,25.60
2019-03-15T17:00:24.779Z,24.90
2019-03-15T17:02:53.404Z,24.30
2019-03-15T17:05:21.966Z,24.20
2019-03-15T17:07:50.822Z,24.00
2019-03-15T17:10:20.041Z,24.30
2019-03-15T17:12:48.733Z,23.90
2019-03-15T17:15:25.647Z,23.60
2019-03-15T17:17:54.341Z,23.00
2019-03-15T17:20:22.976Z,22.90
2019-03-15T17:22:51.675Z,22.30
2019-03-15T17:25:20.314Z,22.20
2019-03-15T17:27:48.880Z,22.00
2019-03-15T17:30:17.914Z,21.40
2019-03-15T17:32:46.883Z,20.70
2019-03-15T17:35:17.599Z,20.40
2019-03-15T17:37:46.250Z,21.30
2019-03-15T17:40:21.775Z,21.40
2019-03-15T17:42:50.557Z,21.70
2019-03-15T17:45:19.215Z,22.90
2019-03-15T17:47:47.913Z,22.00
2019-03-15T17:50:18.658Z,22.00
2019-03-15T17:52:48.009Z,21.50
2019-03-15T17:55:16.956Z,22.90
2019-03-15T17:57:46.240Z,23.70
2019-03-15T18:00:19.115Z,24.20
2019-03-15T18:02:47.676Z,23.30
2019-03-15T18:05:16.396Z,23.20
2019-03-15T18:07:45.078Z,22.10
2019-03-15T18:10:13.639Z,22.60
2019-03-15T18:12:42.308Z,22.30
2019-03-15T18:15:11.222Z,21.70
2019-03-15T18:17:39.722Z,21.70
2019-03-15T18:20:09.215Z,22.20
2019-03-15T18:22:37.703Z,21.70
2019-03-15T18:25:07.926Z,21.60
2019-03-15T18:27:36.543Z,22.10
2019-03-15T18:30:13.293Z,22.00
2019-03-15T18:32:41.907Z,22.70
2019-03-15T18:35:11.366Z,22.60
2019-03-15T18:37:39.952Z,22.80
2019-03-15T18:40:15.899Z,22.30
2019-03-15T18:42:44.467Z,21.50
2019-03-15T18:45:14.081Z,20.50
2019-03-15T18:47:42.748Z,20.00
2019-03-15T18:50:18.944Z,19.60
2019-03-15T18:52:47.653Z,20.00
2019-03-15T18:55:16.282Z,22.10
2019-03-15T18:57:46.375Z,22.50
2019-03-15T19:00:23.942Z,22.50
2019-03-15T19:02:52.585Z,21.80
2019-03-15T19:05:21.137Z,21.60
2019-03-15T19:07:49.806Z,21.80
2019-03-15T19:10:18.370Z,20.90
2019-03-15T19:12:46.919Z,21.10
2019-03-15T19:15:16.454Z,20.70
2019-03-15T19:17:44.910Z,20.70
2019-03-15T19:20:14.642Z,20.70
2019-03-15T19:22:44.859Z,20.20
2019-03-15T19:25:14.250Z,20.00
2019-03-15T19:27:42.895Z,19.50
2019-03-15T19:30:12.955Z,19.60
2019-03-15T19:32:41.538Z,19.50
2019-03-15T19:35:10.473Z,19.70
2019-03-15T19:37:39.149Z,19.90
2019-03-15T19:40:14.916Z,20.20
2019-03-15T19:42:45.466Z,20.10
2019-03-15T19:45:14.718Z,19.40
2019-03-15T19:47:43.678Z,18.90
2019-03-15T19:50:22.824Z,18.50
2019-03-15T19:52:51.594Z,18.60
2019-03-15T19:55:20.072Z,19.20
2019-03-15T19:57:48.706Z,19.20
2019-03-15T20:00:23.655Z,19.10
2019-03-15T20:02:52.590Z,19.10
2019-03-15T20:05:21.183Z,19.40
2019-03-15T20:07:51.114Z,19.00
2019-03-15T20:10:19.806Z,18.80
2019-03-15T20:12:48.283Z,20.10
2019-03-15T20:15:17.350Z,21.20
2019-03-15T20:17:45.941Z,20.80
2019-03-15T20:20:18.509Z,22.30
2019-03-15T20:22:46.989Z,23.30
2019-03-15T20:25:16.161Z,23.70
2019-03-15T20:27:46.152Z,23.30
2019-03-15T20:30:23.126Z,22.60
2019-03-15T20:32:50.620Z,23.70
2019-03-15T20:35:20.975Z,22.80
2019-03-15T20:37:51.920Z,22.90
2019-03-15T20:40:22.707Z,23.70
2019-03-15T20:42:52.447Z,24.50
2019-03-15T20:45:22.634Z,24.50
2019-03-15T20:47:51.226Z,24.00
2019-03-15T20:50:22.495Z,24.30
2019-03-15T20:52:50.958Z,23.30
2019-03-15T20:55:19.687Z,22.50
2019-03-15T20:57:48.184Z,22.60
2019-03-15T21:00:20.247Z,22.20
2019-03-15T21:02:50.420Z,21.90
2019-03-15T21:05:18.885Z,22.00
2019-03-15T21:07:47.848Z,21.80
2019-03-15T21:10:19.354Z,22.30
2019-03-15T21:12:47.683Z,23.10
2019-03-15T21:15:16.733Z,23.40
2019-03-15T21:17:45.185Z,23.80
2019-03-15T21:20:18.516Z,23.70
2019-03-15T21:22:47.098Z,24.20
2019-03-15T21:25:18.821Z,24.60
2019-03-15T21:27:54.197Z,23.30
2019-03-15T21:30:19.026Z,21.80
2019-03-15T21:32:47.686Z,22.40
2019-03-15T21:35:16.658Z,22.60
2019-03-15T21:37:46.278Z,23.10
2019-03-15T21:40:18.979Z,23.90
2019-03-15T21:42:47.552Z,23.50
2019-03-15T21:45:16.787Z,22.70
2019-03-15T21:47:45.405Z,22.90
2019-03-15T21:50:19.178Z,22.70
2019-03-15T21:52:47.762Z,22.70
2019-03-15T21:55:16.344Z,22.30
2019-03-15T21:57:44.829Z,21.60
2019-03-15T22:00:20.461Z,20.80
2019-03-15T22:02:48.949Z,20.20
2019-03-15T22:05:17.434Z,19.20
2019-03-15T22:07:46.059Z,19.10
2019-03-15T22:10:15.608Z,19.30
2019-03-15T22:12:44.100Z,19.90
2019-03-15T22:15:13.473Z,20.20
2019-03-15T22:17:43.717Z,20.00
2019-03-15T22:20:14.965Z,20.30
2019-03-15T22:22:43.566Z,20.50
2019-03-15T22:25:12.160Z,20.50
2019-03-15T22:27:40.803Z,20.60
2019-03-15T22:30:13.442Z,20.90
2019-03-15T22:32:41.940Z,21.20
2019-03-15T22:35:10.583Z,20.80
2019-03-15T22:37:39.112Z,20.50
2019-03-15T22:40:10.024Z,20.60
2019-03-15T22:42:38.541Z,20.40
2019-03-15T22:45:09.798Z,20.10
2019-03-15T22:47:38.791Z,20.10
2019-03-15T22:50:11.497Z,19.70
2019-03-15T22:52:40.201Z,20.00
2019-03-15T22:55:09.874Z,20.10
2019-03-15T22:57:38.358Z,20.30
2019-03-15T23:00:16.194Z,20.60
2019-03-15T23:02:44.805Z,20.70
2019-03-15T23:05:13.337Z,20.40
2019-03-15T23:07:42.038Z,20.50
2019-03-15T23:10:10.922Z,21.00
2019-03-15T23:12:39.422Z,20.90
2019-03-15T23:15:09.727Z,21.10
2019-03-15T23:17:38.299Z,20.50
2019-03-15T23:20:08.836Z,20.30
2019-03-15T23:22:37.359Z,20.00
2019-03-15T23:25:06.802Z,20.00
2019-03-15T23:27:35.441Z,20.40
2019-03-15T23:30:14.236Z,20.80
2019-03-15T23:32:42.792Z,20.70
2019-03-15T23:35:11.419Z,20.60
2019-03-15T23:37:39.949Z,19.90
2019-03-15T23:40:10.925Z,19.80
2019-03-15T23:42:40.300Z,19.80
2019-03-15T23:45:09.966Z,20.40
2019-03-15T23:47:38.601Z,19.80
2019-03-15T23:50:09.852Z,20.50
2019-03-15T23:52:38.438Z,20.80
2019-03-15T23:55:06.922Z,20.50
2019-03-15T23:57:35.486Z,20.90
